sensor_id;sensor_type;location;lat;lon;timestamp;pressure;altitude;pressure_sealevel;temperature;humidity
74631;BME280;63138;55.082;38.804;2023-04-08T00:00:05;100990.13;;;2.50;54.13
74631;BME280;63138;55.082;38.804;2023-04-08T00:02:36;101000.09;;;2.48;54.04
74631;BME280;63138;55.082;38.804;2023-04-08T00:05:03;100989.59;;;2.45;54.04
74631;BME280;63138;55.082;38.804;2023-04-08T00:07:32;100982.41;;;2.45;54.83
74631;BME280;63138;55.082;38.804;2023-04-08T00:09:58;100989.59;;;2.45;54.07
74631;BME280;63138;55.082;38.804;2023-04-08T00:12:26;100992.47;;;2.42;55.19
74631;BME280;63138;55.082;38.804;2023-04-08T00:14:56;100981.75;;;2.42;55.06
74631;BME280;63138;55.082;38.804;2023-04-08T00:17:50;100979.25;;;2.39;54.93
74631;BME280;63138;55.082;38.804;2023-04-08T00:20:22;100974.09;;;2.36;54.60
74631;BME280;63138;55.082;38.804;2023-04-08T00:23:13;100980.50;;;2.33;55.08
74631;BME280;63138;55.082;38.804;2023-04-08T00:25:42;100967.41;;;2.28;55.19
74631;BME280;63138;55.082;38.804;2023-04-08T00:28:12;100971.06;;;2.27;55.37
74631;BME280;63138;55.082;38.804;2023-04-08T00:30:44;100974.69;;;2.26;55.32
74631;BME280;63138;55.082;38.804;2023-04-08T00:33:10;100986.47;;;2.24;55.92
74631;BME280;63138;55.082;38.804;2023-04-08T00:36:05;100982.16;;;2.21;55.75
74631;BME280;63138;55.082;38.804;2023-04-08T00:38:34;100977.94;;;2.17;56.09
74631;BME280;63138;55.082;38.804;2023-04-08T00:41:26;100979.78;;;2.17;56.02
74631;BME280;63138;55.082;38.804;2023-04-08T00:43:56;100977.28;;;2.14;56.51
74631;BME280;63138;55.082;38.804;2023-04-08T00:46:22;100985.41;;;2.12;56.62
74631;BME280;63138;55.082;38.804;2023-04-08T00:48:48;100982.94;;;2.09;56.85
74631;BME280;63138;55.082;38.804;2023-04-08T00:51:18;100971.66;;;2.04;56.82
74631;BME280;63138;55.082;38.804;2023-04-08T00:54:09;100983.31;;;2.03;56.82
74631;BME280;63138;55.082;38.804;2023-04-08T00:56:37;100993.19;;;2.02;57.00
74631;BME280;63138;55.082;38.804;2023-04-08T00:59:04;100984.56;;;1.97;57.07
74631;BME280;63138;55.082;38.804;2023-04-08T01:01:54;100989.06;;;1.97;56.89
74631;BME280;63138;55.082;38.804;2023-04-08T01:04:31;100993.53;;;1.96;57.49
74631;BME280;63138;55.082;38.804;2023-04-08T01:09:37;100982.38;;;1.89;58.02
74631;BME280;63138;55.082;38.804;2023-04-08T01:12:06;100996.72;;;1.88;57.69
74631;BME280;63138;55.082;38.804;2023-04-08T01:14:59;100987.16;;;1.84;58.29
74631;BME280;63138;55.082;38.804;2023-04-08T01:17:32;100975.88;;;1.79;58.82
74631;BME280;63138;55.082;38.804;2023-04-08T01:20:02;100983.81;;;1.81;58.88
74631;BME280;63138;55.082;38.804;2023-04-08T01:25:26;100991.34;;;1.74;58.81
74631;BME280;63138;55.082;38.804;2023-04-08T01:27:59;100981.78;;;1.70;58.91
74631;BME280;63138;55.082;38.804;2023-04-08T01:30:31;100982.94;;;1.66;59.17
74631;BME280;63138;55.082;38.804;2023-04-08T01:33:01;100976.91;;;1.62;59.09
74631;BME280;63138;55.082;38.804;2023-04-08T01:35:27;100992.09;;;1.62;59.63
74631;BME280;63138;55.082;38.804;2023-04-08T01:37:58;100992.31;;;1.59;59.56
74631;BME280;63138;55.082;38.804;2023-04-08T01:40:24;100993.25;;;1.58;59.32
74631;BME280;63138;55.082;38.804;2023-04-08T01:42:55;100999.75;;;1.53;59.41
74631;BME280;63138;55.082;38.804;2023-04-08T01:45:24;100992.66;;;1.52;59.90
74631;BME280;63138;55.082;38.804;2023-04-08T01:47:51;100988.28;;;1.51;59.92
74631;BME280;63138;55.082;38.804;2023-04-08T01:50:18;100987.47;;;1.49;60.16
74631;BME280;63138;55.082;38.804;2023-04-08T01:53:11;100996.56;;;1.47;60.36
74631;BME280;63138;55.082;38.804;2023-04-08T01:55:39;100979.16;;;1.40;60.51
74631;BME280;63138;55.082;38.804;2023-04-08T01:58:11;100995.97;;;1.42;60.90
74631;BME280;63138;55.082;38.804;2023-04-08T02:00:41;100996.94;;;1.41;60.96
74631;BME280;63138;55.082;38.804;2023-04-08T02:03:11;101004.19;;;1.39;61.22
74631;BME280;63138;55.082;38.804;2023-04-08T02:05:38;100999.03;;;1.36;61.12
74631;BME280;63138;55.082;38.804;2023-04-08T02:08:32;101004.56;;;1.32;61.18
74631;BME280;63138;55.082;38.804;2023-04-08T02:11:02;101001.22;;;1.29;61.27
74631;BME280;63138;55.082;38.804;2023-04-08T02:13:32;101004.06;;;1.26;61.05
74631;BME280;63138;55.082;38.804;2023-04-08T02:16:43;101004.25;;;1.23;60.74
74631;BME280;63138;55.082;38.804;2023-04-08T02:19:24;101015.13;;;1.20;61.38
74631;BME280;63138;55.082;38.804;2023-04-08T02:22:07;101008.06;;;1.19;61.22
74631;BME280;63138;55.082;38.804;2023-04-08T02:25:03;101001.00;;;1.18;61.64
74631;BME280;63138;55.082;38.804;2023-04-08T02:27:34;101008.25;;;1.16;61.69
74631;BME280;63138;55.082;38.804;2023-04-08T02:30:06;101007.19;;;1.18;61.70
74631;BME280;63138;55.082;38.804;2023-04-08T02:32:36;101003.06;;;1.12;62.20
74631;BME280;63138;55.082;38.804;2023-04-08T02:35:30;101011.78;;;1.16;62.60
74631;BME280;63138;55.082;38.804;2023-04-08T02:37:58;101009.09;;;1.16;62.14
74631;BME280;63138;55.082;38.804;2023-04-08T02:40:31;101008.25;;;1.16;62.24
74631;BME280;63138;55.082;38.804;2023-04-08T02:43:04;101011.88;;;1.14;62.10
74631;BME280;63138;55.082;38.804;2023-04-08T02:45:59;101018.06;;;1.15;62.42
74631;BME280;63138;55.082;38.804;2023-04-08T02:48:32;101013.69;;;1.14;62.95
74631;BME280;63138;55.082;38.804;2023-04-08T02:51:03;101013.59;;;1.16;62.46
74631;BME280;63138;55.082;38.804;2023-04-08T02:53:30;101014.38;;;1.18;62.91
74631;BME280;63138;55.082;38.804;2023-04-08T02:55:56;101015.22;;;1.18;62.67
74631;BME280;63138;55.082;38.804;2023-04-08T02:58:25;101009.78;;;1.20;62.40
74631;BME280;63138;55.082;38.804;2023-04-08T03:00:51;101006.06;;;1.22;62.89
74631;BME280;63138;55.082;38.804;2023-04-08T03:03:20;101014.09;;;1.22;62.61
74631;BME280;63138;55.082;38.804;2023-04-08T03:05:52;101027.13;;;1.28;62.80
74631;BME280;63138;55.082;38.804;2023-04-08T03:08:19;101006.47;;;1.30;62.89
74631;BME280;63138;55.082;38.804;2023-04-08T03:10:47;101006.38;;;1.32;62.79
74631;BME280;63138;55.082;38.804;2023-04-08T03:13:16;101022.16;;;1.37;63.11
74631;BME280;63138;55.082;38.804;2023-04-08T03:15:44;101027.34;;;1.40;62.85
74631;BME280;63138;55.082;38.804;2023-04-08T03:18:12;101020.94;;;1.42;63.36
74631;BME280;63138;55.082;38.804;2023-04-08T03:20:37;101018.00;;;1.47;62.56
74631;BME280;63138;55.082;38.804;2023-04-08T03:23:05;101011.41;;;1.52;62.19
74631;BME280;63138;55.082;38.804;2023-04-08T03:25:31;101015.44;;;1.60;62.30
74631;BME280;63138;55.082;38.804;2023-04-08T03:28:02;101017.94;;;1.63;62.04
74631;BME280;63138;55.082;38.804;2023-04-08T03:30:30;101019.38;;;1.68;61.94
74631;BME280;63138;55.082;38.804;2023-04-08T03:32:56;101015.44;;;1.74;62.11
74631;BME280;63138;55.082;38.804;2023-04-08T03:35:22;101018.88;;;1.76;61.93
74631;BME280;63138;55.082;38.804;2023-04-08T03:37:49;101019.47;;;1.81;61.53
74631;BME280;63138;55.082;38.804;2023-04-08T03:40:15;101030.09;;;1.83;61.92
74631;BME280;63138;55.082;38.804;2023-04-08T03:42:45;101027.91;;;1.89;61.57
74631;BME280;63138;55.082;38.804;2023-04-08T03:45:11;101025.44;;;2.01;61.37
74631;BME280;63138;55.082;38.804;2023-04-08T03:47:37;101027.94;;;2.04;60.95
74631;BME280;63138;55.082;38.804;2023-04-08T03:50:05;101026.69;;;2.09;60.67
74631;BME280;63138;55.082;38.804;2023-04-08T03:52:33;101029.06;;;2.14;61.33
74631;BME280;63138;55.082;38.804;2023-04-08T03:55:00;101032.03;;;2.24;60.99
74631;BME280;63138;55.082;38.804;2023-04-08T03:57:53;101034.59;;;2.40;60.51
74631;BME280;63138;55.082;38.804;2023-04-08T04:00:22;101035.94;;;2.47;60.85
74631;BME280;63138;55.082;38.804;2023-04-08T04:02:47;101027.41;;;2.40;60.54
74631;BME280;63138;55.082;38.804;2023-04-08T04:05:20;101030.47;;;2.48;60.74
74631;BME280;63138;55.082;38.804;2023-04-08T04:07:46;101035.03;;;2.61;60.86
74631;BME280;63138;55.082;38.804;2023-04-08T04:10:13;101039.50;;;2.75;60.50
74631;BME280;63138;55.082;38.804;2023-04-08T04:12:40;101041.78;;;2.81;59.57
74631;BME280;63138;55.082;38.804;2023-04-08T04:15:10;101046.66;;;2.89;59.68
74631;BME280;63138;55.082;38.804;2023-04-08T04:17:37;101036.22;;;2.84;59.67
74631;BME280;63138;55.082;38.804;2023-04-08T04:20:07;101048.84;;;2.96;59.64
74631;BME280;63138;55.082;38.804;2023-04-08T04:22:33;101048.44;;;3.02;59.67
74631;BME280;63138;55.082;38.804;2023-04-08T04:25:00;101051.25;;;3.01;59.61
74631;BME280;63138;55.082;38.804;2023-04-08T04:27:26;101045.66;;;3.04;59.70
74631;BME280;63138;55.082;38.804;2023-04-08T04:29:53;101047.94;;;3.10;58.90
74631;BME280;63138;55.082;38.804;2023-04-08T04:32:22;101056.69;;;3.27;59.08
74631;BME280;63138;55.082;38.804;2023-04-08T04:34:48;101046.06;;;3.25;58.69
74631;BME280;63138;55.082;38.804;2023-04-08T04:37:40;101046.81;;;3.27;58.92
74631;BME280;63138;55.082;38.804;2023-04-08T04:41:04;101038.84;;;3.25;59.33
74631;BME280;63138;55.082;38.804;2023-04-08T04:43:33;101042.00;;;3.32;58.91
74631;BME280;63138;55.082;38.804;2023-04-08T04:45:59;101047.16;;;3.35;59.27
74631;BME280;63138;55.082;38.804;2023-04-08T04:48:27;101051.78;;;3.33;59.03
74631;BME280;63138;55.082;38.804;2023-04-08T04:50:55;101047.72;;;3.40;59.74
74631;BME280;63138;55.082;38.804;2023-04-08T04:53:22;101046.34;;;3.48;59.33
74631;BME280;63138;55.082;38.804;2023-04-08T04:55:49;101045.72;;;3.70;58.94
74631;BME280;63138;55.082;38.804;2023-04-08T04:58:19;101050.03;;;3.85;58.86
74631;BME280;63138;55.082;38.804;2023-04-08T05:00:46;101050.47;;;3.92;58.27
74631;BME280;63138;55.082;38.804;2023-04-08T05:03:12;101059.63;;;4.02;58.59
74631;BME280;63138;55.082;38.804;2023-04-08T05:05:39;101062.63;;;4.10;58.64
74631;BME280;63138;55.082;38.804;2023-04-08T05:08:29;101052.09;;;4.20;58.77
74631;BME280;63138;55.082;38.804;2023-04-08T05:11:00;101062.09;;;4.31;58.37
74631;BME280;63138;55.082;38.804;2023-04-08T05:13:32;101054.84;;;4.44;58.35
74631;BME280;63138;55.082;38.804;2023-04-08T05:15:58;101061.28;;;4.54;58.11
74631;BME280;63138;55.082;38.804;2023-04-08T05:18:25;101060.84;;;4.60;58.30
74631;BME280;63138;55.082;38.804;2023-04-08T05:20:51;101057.25;;;4.73;57.76
74631;BME280;63138;55.082;38.804;2023-04-08T05:23:18;101062.28;;;4.90;57.40
74631;BME280;63138;55.082;38.804;2023-04-08T05:25:46;101066.88;;;5.01;57.37
74631;BME280;63138;55.082;38.804;2023-04-08T05:28:15;101062.38;;;4.89;57.73
74631;BME280;63138;55.082;38.804;2023-04-08T05:30:48;101062.53;;;5.71;55.94
74631;BME280;63138;55.082;38.804;2023-04-08T05:33:15;101065.81;;;6.78;53.11
74631;BME280;63138;55.082;38.804;2023-04-08T05:35:43;101062.94;;;7.13;51.91
74631;BME280;63138;55.082;38.804;2023-04-08T05:38:09;101062.63;;;6.84;52.12
74631;BME280;63138;55.082;38.804;2023-04-08T05:41:03;101064.25;;;6.53;52.96
74631;BME280;63138;55.082;38.804;2023-04-08T05:43:35;101060.06;;;6.60;53.14
74631;BME280;63138;55.082;38.804;2023-04-08T05:46:07;101068.50;;;7.33;50.92
74631;BME280;63138;55.082;38.804;2023-04-08T05:48:34;101061.00;;;8.11;49.37
74631;BME280;63138;55.082;38.804;2023-04-08T05:51:02;101063.81;;;9.11;46.88
74631;BME280;63138;55.082;38.804;2023-04-08T05:53:28;101058.69;;;9.86;45.25
74631;BME280;63138;55.082;38.804;2023-04-08T05:56:24;101052.34;;;10.62;43.12
74631;BME280;63138;55.082;38.804;2023-04-08T05:58:53;101061.19;;;10.92;41.57
74631;BME280;63138;55.082;38.804;2023-04-08T06:01:19;101061.88;;;11.22;41.21
74631;BME280;63138;55.082;38.804;2023-04-08T06:04:22;101066.94;;;11.71;39.63
74631;BME280;63138;55.082;38.804;2023-04-08T06:07:07;101067.44;;;12.10;38.79
74631;BME280;63138;55.082;38.804;2023-04-08T06:09:59;101061.41;;;11.98;38.58
74631;BME280;63138;55.082;38.804;2023-04-08T06:12:25;101065.38;;;12.65;37.69
74631;BME280;63138;55.082;38.804;2023-04-08T06:14:55;101049.50;;;12.52;37.24
74631;BME280;63138;55.082;38.804;2023-04-08T06:17:21;101054.50;;;12.73;37.03
74631;BME280;63138;55.082;38.804;2023-04-08T06:19:50;101059.06;;;13.07;36.76
74631;BME280;63138;55.082;38.804;2023-04-08T06:22:16;101057.91;;;13.17;36.30
74631;BME280;63138;55.082;38.804;2023-04-08T06:25:07;101061.06;;;13.80;35.05
74631;BME280;63138;55.082;38.804;2023-04-08T06:30:19;101051.09;;;14.45;33.93
74631;BME280;63138;55.082;38.804;2023-04-08T06:33:22;101052.53;;;14.80;33.06
74631;BME280;63138;55.082;38.804;2023-04-08T06:35:48;101049.91;;;14.31;33.75
74631;BME280;63138;55.082;38.804;2023-04-08T06:38:33;101052.31;;;14.34;33.96
74631;BME280;63138;55.082;38.804;2023-04-08T06:41:43;101053.47;;;14.48;33.10
74631;BME280;63138;55.082;38.804;2023-04-08T06:44:24;101057.06;;;14.40;33.78
74631;BME280;63138;55.082;38.804;2023-04-08T06:47:53;101058.88;;;14.72;33.55
74631;BME280;63138;55.082;38.804;2023-04-08T06:50:47;101056.84;;;15.06;32.95
74631;BME280;63138;55.082;38.804;2023-04-08T06:53:15;101054.44;;;15.11;32.75
74631;BME280;63138;55.082;38.804;2023-04-08T06:55:47;101063.09;;;15.46;32.11
74631;BME280;63138;55.082;38.804;2023-04-08T06:58:13;101062.38;;;15.29;32.30
74631;BME280;63138;55.082;38.804;2023-04-08T07:01:24;101057.31;;;15.41;32.03
74631;BME280;63138;55.082;38.804;2023-04-08T07:06:54;101048.84;;;14.96;32.58
74631;BME280;63138;55.082;38.804;2023-04-08T07:09:47;101051.38;;;14.66;32.75
74631;BME280;63138;55.082;38.804;2023-04-08T07:12:42;101057.00;;;14.57;33.31
74631;BME280;63138;55.082;38.804;2023-04-08T07:15:58;101065.06;;;14.58;33.31
74631;BME280;63138;55.082;38.804;2023-04-08T07:18:24;101060.88;;;14.14;34.32
74631;BME280;63138;55.082;38.804;2023-04-08T07:20:52;101048.09;;;13.57;35.02
74631;BME280;63138;55.082;38.804;2023-04-08T07:26:13;101058.13;;;13.32;35.92
74631;BME280;63138;55.082;38.804;2023-04-08T07:29:04;101042.72;;;13.23;36.02
74631;BME280;63138;55.082;38.804;2023-04-08T07:31:55;101036.03;;;12.50;37.05
74631;BME280;63138;55.082;38.804;2023-04-08T07:34:21;101034.50;;;12.98;36.63
74631;BME280;63138;55.082;38.804;2023-04-08T07:37:14;101049.97;;;14.06;34.58
74631;BME280;63138;55.082;38.804;2023-04-08T07:39:47;101056.47;;;13.89;34.90
74631;BME280;63138;55.082;38.804;2023-04-08T07:42:38;101047.22;;;14.23;34.69
74631;BME280;63138;55.082;38.804;2023-04-08T07:45:05;101035.50;;;13.81;34.70
74631;BME280;63138;55.082;38.804;2023-04-08T07:47:34;101043.50;;;13.66;34.86
74631;BME280;63138;55.082;38.804;2023-04-08T07:50:03;101043.66;;;13.48;35.18
74631;BME280;63138;55.082;38.804;2023-04-08T07:52:29;101042.06;;;12.70;36.58
74631;BME280;63138;55.082;38.804;2023-04-08T07:55:21;101044.88;;;13.70;35.02
74631;BME280;63138;55.082;38.804;2023-04-08T07:57:47;101035.06;;;13.18;35.49
74631;BME280;63138;55.082;38.804;2023-04-08T08:00:40;101053.06;;;13.79;35.32
74631;BME280;63138;55.082;38.804;2023-04-08T08:03:07;101024.06;;;13.53;34.63
74631;BME280;63138;55.082;38.804;2023-04-08T08:05:35;101044.13;;;13.27;35.99
74631;BME280;63138;55.082;38.804;2023-04-08T08:08:01;101050.00;;;13.49;35.62
74631;BME280;63138;55.082;38.804;2023-04-08T08:10:28;101052.03;;;12.96;36.29
74631;BME280;63138;55.082;38.804;2023-04-08T08:12:55;101061.13;;;13.13;36.10
74631;BME280;63138;55.082;38.804;2023-04-08T08:15:21;101052.59;;;13.16;36.14
74631;BME280;63138;55.082;38.804;2023-04-08T08:17:47;101031.44;;;12.93;36.51
74631;BME280;63138;55.082;38.804;2023-04-08T08:20:38;101038.75;;;12.50;37.40
74631;BME280;63138;55.082;38.804;2023-04-08T08:23:04;101038.88;;;12.83;36.52
74631;BME280;63138;55.082;38.804;2023-04-08T08:25:30;101041.88;;;12.63;36.85
74631;BME280;63138;55.082;38.804;2023-04-08T08:28:00;101036.94;;;13.26;36.33
74631;BME280;63138;55.082;38.804;2023-04-08T08:30:28;101044.44;;;13.24;36.30
74631;BME280;63138;55.082;38.804;2023-04-08T08:33:24;101047.63;;;13.70;35.60
74631;BME280;63138;55.082;38.804;2023-04-08T08:36:15;101040.09;;;13.64;35.58
74631;BME280;63138;55.082;38.804;2023-04-08T08:38:42;101044.19;;;13.85;35.19
74631;BME280;63138;55.082;38.804;2023-04-08T08:41:15;101019.97;;;13.49;36.02
74631;BME280;63138;55.082;38.804;2023-04-08T08:43:43;101046.06;;;13.60;36.20
74631;BME280;63138;55.082;38.804;2023-04-08T08:46:59;101054.16;;;13.27;36.16
74631;BME280;63138;55.082;38.804;2023-04-08T08:49:53;101025.75;;;13.46;35.89
74631;BME280;63138;55.082;38.804;2023-04-08T08:52:20;101041.09;;;12.45;37.36
74631;BME280;63138;55.082;38.804;2023-04-08T08:54:46;101034.28;;;12.84;37.36
74631;BME280;63138;55.082;38.804;2023-04-08T08:57:16;101036.41;;;12.63;37.72
74631;BME280;63138;55.082;38.804;2023-04-08T08:59:47;101016.88;;;12.34;38.04
74631;BME280;63138;55.082;38.804;2023-04-08T09:02:26;101008.63;;;12.60;37.56
74631;BME280;63138;55.082;38.804;2023-04-08T09:04:56;101044.00;;;12.86;37.36
74631;BME280;63138;55.082;38.804;2023-04-08T09:07:24;101038.63;;;13.11;37.37
74631;BME280;63138;55.082;38.804;2023-04-08T09:10:27;101026.25;;;12.74;37.11
74631;BME280;63138;55.082;38.804;2023-04-08T09:12:54;101022.31;;;12.76;37.45
74631;BME280;63138;55.082;38.804;2023-04-08T09:16:07;101042.75;;;12.38;38.91
74631;BME280;63138;55.082;38.804;2023-04-08T09:18:38;101052.34;;;12.85;37.87
74631;BME280;63138;55.082;38.804;2023-04-08T09:21:05;101049.34;;;12.53;37.57
74631;BME280;63138;55.082;38.804;2023-04-08T09:23:44;101050.56;;;12.33;38.33
74631;BME280;63138;55.082;38.804;2023-04-08T09:26:14;101032.31;;;12.59;37.75
74631;BME280;63138;55.082;38.804;2023-04-08T09:28:42;101038.44;;;13.04;37.12
74631;BME280;63138;55.082;38.804;2023-04-08T09:31:34;101043.41;;;13.25;36.88
74631;BME280;63138;55.082;38.804;2023-04-08T09:34:13;101035.84;;;12.86;36.81
74631;BME280;63138;55.082;38.804;2023-04-08T09:36:45;101031.00;;;12.72;37.21
74631;BME280;63138;55.082;38.804;2023-04-08T09:39:12;101029.72;;;12.92;37.55
74631;BME280;63138;55.082;38.804;2023-04-08T09:41:41;101023.69;;;12.72;37.71
74631;BME280;63138;55.082;38.804;2023-04-08T09:44:08;101037.38;;;12.89;37.09
74631;BME280;63138;55.082;38.804;2023-04-08T09:47:22;101021.69;;;12.91;37.19
74631;BME280;63138;55.082;38.804;2023-04-08T09:49:42;101025.97;;;12.93;37.21
74631;BME280;63138;55.082;38.804;2023-04-08T09:55:03;101030.53;;;13.76;35.93
74631;BME280;63138;55.082;38.804;2023-04-08T09:57:43;101019.09;;;13.32;36.83
74631;BME280;63138;55.082;38.804;2023-04-08T10:00:13;101014.88;;;13.70;35.70
74631;BME280;63138;55.082;38.804;2023-04-08T10:02:54;101035.50;;;13.73;35.50
74631;BME280;63138;55.082;38.804;2023-04-08T10:05:23;101025.94;;;13.85;35.89
74631;BME280;63138;55.082;38.804;2023-04-08T10:07:51;101017.16;;;14.23;35.18
74631;BME280;63138;55.082;38.804;2023-04-08T10:10:20;101012.25;;;14.10;35.03
74631;BME280;63138;55.082;38.804;2023-04-08T10:12:47;101012.97;;;13.95;35.57
74631;BME280;63138;55.082;38.804;2023-04-08T10:15:38;101016.38;;;13.73;36.31
74631;BME280;63138;55.082;38.804;2023-04-08T10:20:57;101029.44;;;13.12;35.28
74631;BME280;63138;55.082;38.804;2023-04-08T10:26:32;101021.31;;;13.69;34.08
74631;BME280;63138;55.082;38.804;2023-04-08T10:31:47;101015.03;;;13.69;34.68
74631;BME280;63138;55.082;38.804;2023-04-08T10:37:11;101021.13;;;13.79;34.64
74631;BME280;63138;55.082;38.804;2023-04-08T10:39:38;101015.13;;;14.17;34.03
74631;BME280;63138;55.082;38.804;2023-04-08T10:42:07;101018.91;;;13.83;34.27
74631;BME280;63138;55.082;38.804;2023-04-08T10:44:33;101030.94;;;13.06;33.98
74631;BME280;63138;55.082;38.804;2023-04-08T10:46:59;101014.75;;;12.96;32.67
74631;BME280;63138;55.082;38.804;2023-04-08T10:49:33;101003.88;;;13.29;32.12
74631;BME280;63138;55.082;38.804;2023-04-08T10:52:00;101015.31;;;13.16;33.27
74631;BME280;63138;55.082;38.804;2023-04-08T10:54:33;101005.16;;;12.84;35.14
74631;BME280;63138;55.082;38.804;2023-04-08T10:56:58;101005.81;;;12.78;34.36
74631;BME280;63138;55.082;38.804;2023-04-08T10:59:30;101005.22;;;13.00;33.71
74631;BME280;63138;55.082;38.804;2023-04-08T11:01:57;100991.19;;;12.79;35.54
74631;BME280;63138;55.082;38.804;2023-04-08T11:05:13;100992.31;;;13.35;35.65
74631;BME280;63138;55.082;38.804;2023-04-08T11:07:45;100983.63;;;13.32;35.86
74631;BME280;63138;55.082;38.804;2023-04-08T11:10:12;100985.78;;;13.12;34.72
74631;BME280;63138;55.082;38.804;2023-04-08T11:12:38;100988.34;;;13.13;34.11
74631;BME280;63138;55.082;38.804;2023-04-08T11:15:05;100998.06;;;13.16;34.21
74631;BME280;63138;55.082;38.804;2023-04-08T11:17:56;100983.66;;;12.73;33.90
74631;BME280;63138;55.082;38.804;2023-04-08T11:20:23;100982.06;;;13.13;33.03
74631;BME280;63138;55.082;38.804;2023-04-08T11:22:50;100985.69;;;13.63;32.13
74631;BME280;63138;55.082;38.804;2023-04-08T11:25:18;100987.19;;;13.73;32.38
74631;BME280;63138;55.082;38.804;2023-04-08T11:27:44;100972.31;;;14.01;32.61
74631;BME280;63138;55.082;38.804;2023-04-08T11:30:11;100976.97;;;13.84;32.43
74631;BME280;63138;55.082;38.804;2023-04-08T11:32:39;100981.78;;;13.49;33.08
74631;BME280;63138;55.082;38.804;2023-04-08T11:35:10;100964.66;;;13.06;33.21
74631;BME280;63138;55.082;38.804;2023-04-08T11:37:40;100961.94;;;13.14;33.56
74631;BME280;63138;55.082;38.804;2023-04-08T11:40:11;100973.50;;;12.91;34.23
74631;BME280;63138;55.082;38.804;2023-04-08T11:42:39;100968.50;;;12.70;34.32
74631;BME280;63138;55.082;38.804;2023-04-08T11:45:13;100958.19;;;13.15;34.28
74631;BME280;63138;55.082;38.804;2023-04-08T11:47:43;100951.88;;;13.23;33.91
74631;BME280;63138;55.082;38.804;2023-04-08T11:50:12;100945.94;;;13.27;33.10
74631;BME280;63138;55.082;38.804;2023-04-08T11:52:46;100958.66;;;12.86;33.17
74631;BME280;63138;55.082;38.804;2023-04-08T11:55:37;100954.06;;;12.86;32.96
74631;BME280;63138;55.082;38.804;2023-04-08T11:58:29;100957.50;;;12.96;32.95
74631;BME280;63138;55.082;38.804;2023-04-08T12:00:56;100950.28;;;12.87;33.10
74631;BME280;63138;55.082;38.804;2023-04-08T12:03:26;100961.56;;;12.84;32.52
74631;BME280;63138;55.082;38.804;2023-04-08T12:05:53;100947.59;;;12.95;32.12
74631;BME280;63138;55.082;38.804;2023-04-08T12:08:46;100948.31;;;13.22;32.10
74631;BME280;63138;55.082;38.804;2023-04-08T12:11:13;100956.00;;;13.43;31.59
74631;BME280;63138;55.082;38.804;2023-04-08T12:13:41;100948.34;;;13.38;31.56
74631;BME280;63138;55.082;38.804;2023-04-08T12:16:07;100945.44;;;13.56;30.84
74631;BME280;63138;55.082;38.804;2023-04-08T12:18:33;100938.06;;;13.73;30.69
74631;BME280;63138;55.082;38.804;2023-04-08T12:21:00;100940.28;;;13.70;30.71
74631;BME280;63138;55.082;38.804;2023-04-08T12:23:25;100948.31;;;13.71;31.24
74631;BME280;63138;55.082;38.804;2023-04-08T12:25:54;100946.94;;;13.18;32.02
74631;BME280;63138;55.082;38.804;2023-04-08T12:28:21;100943.19;;;13.19;32.13
74631;BME280;63138;55.082;38.804;2023-04-08T12:30:47;100946.09;;;13.50;32.27
74631;BME280;63138;55.082;38.804;2023-04-08T12:33:15;100940.47;;;13.27;32.51
74631;BME280;63138;55.082;38.804;2023-04-08T12:35:43;100937.75;;;13.27;32.71
74631;BME280;63138;55.082;38.804;2023-04-08T12:38:09;100925.47;;;13.07;33.24
74631;BME280;63138;55.082;38.804;2023-04-08T12:40:35;100932.47;;;13.50;33.10
74631;BME280;63138;55.082;38.804;2023-04-08T12:43:10;100922.44;;;13.34;33.34
74631;BME280;63138;55.082;38.804;2023-04-08T12:45:39;100934.66;;;13.14;33.96
74631;BME280;63138;55.082;38.804;2023-04-08T12:48:07;100928.50;;;12.87;34.68
74631;BME280;63138;55.082;38.804;2023-04-08T12:50:33;100936.72;;;13.04;34.25
74631;BME280;63138;55.082;38.804;2023-04-08T12:53:00;100930.56;;;13.18;33.40
74631;BME280;63138;55.082;38.804;2023-04-08T12:55:26;100923.44;;;13.50;33.42
74631;BME280;63138;55.082;38.804;2023-04-08T12:57:52;100925.59;;;13.79;32.61
74631;BME280;63138;55.082;38.804;2023-04-08T13:00:19;100917.78;;;13.76;32.84
74631;BME280;63138;55.082;38.804;2023-04-08T13:02:46;100916.69;;;14.02;32.34
74631;BME280;63138;55.082;38.804;2023-04-08T13:05:14;100913.38;;;14.23;32.31
74631;BME280;63138;55.082;38.804;2023-04-08T13:07:40;100920.81;;;13.98;31.77
74631;BME280;63138;55.082;38.804;2023-04-08T13:10:07;100905.28;;;14.29;31.61
74631;BME280;63138;55.082;38.804;2023-04-08T13:12:35;100914.28;;;14.46;32.03
74631;BME280;63138;55.082;38.804;2023-04-08T13:15:06;100915.13;;;14.07;33.18
74631;BME280;63138;55.082;38.804;2023-04-08T13:17:33;100903.19;;;14.00;33.67
74631;BME280;63138;55.082;38.804;2023-04-08T13:19:59;100906.59;;;14.02;34.00
74631;BME280;63138;55.082;38.804;2023-04-08T13:22:52;100901.88;;;13.88;34.61
74631;BME280;63138;55.082;38.804;2023-04-08T13:25:23;100905.53;;;14.11;34.50
74631;BME280;63138;55.082;38.804;2023-04-08T13:27:49;100896.44;;;14.27;33.95
74631;BME280;63138;55.082;38.804;2023-04-08T13:30:16;100901.06;;;14.19;33.57
74631;BME280;63138;55.082;38.804;2023-04-08T13:32:47;100912.00;;;13.71;34.25
74631;BME280;63138;55.082;38.804;2023-04-08T13:35:13;100891.66;;;13.73;34.25
74631;BME280;63138;55.082;38.804;2023-04-08T13:37:40;100901.63;;;13.50;34.19
74631;BME280;63138;55.082;38.804;2023-04-08T13:40:07;100886.44;;;13.47;34.54
74631;BME280;63138;55.082;38.804;2023-04-08T13:42:34;100895.47;;;13.39;34.56
74631;BME280;63138;55.082;38.804;2023-04-08T13:45:00;100893.09;;;13.45;34.34